createdAt,value
2023-06-22T00:00:23.447Z,25.11
2023-06-22T00:01:26.031Z,25.10
2023-06-22T00:02:29.441Z,25.10
2023-06-22T00:03:31.894Z,25.09
2023-06-22T00:04:35.214Z,25.07
2023-06-22T00:05:37.392Z,25.05
2023-06-22T00:06:40.657Z,25.04
2023-06-22T00:07:42.853Z,25.03
2023-06-22T00:08:46.109Z,25.02
2023-06-22T00:09:48.322Z,25.01
2023-06-22T00:10:51.481Z,25.00
2023-06-22T00:11:53.651Z,24.99
2023-06-22T00:12:56.756Z,24.99
2023-06-22T00:14:00.596Z,24.97
2023-06-22T00:15:03.875Z,24.97
2023-06-22T00:16:06.310Z,24.96
2023-06-22T00:17:09.514Z,24.96
2023-06-22T00:18:12.447Z,24.95
2023-06-22T00:19:16.179Z,24.95
2023-06-22T00:20:19.224Z,24.94
2023-06-22T00:21:22.491Z,24.94
2023-06-22T00:22:29.559Z,24.94
2023-06-22T00:23:35.446Z,24.94
2023-06-22T00:24:37.924Z,24.95
2023-06-22T00:25:41.781Z,24.94
2023-06-22T00:26:44.233Z,24.93
2023-06-22T00:27:47.470Z,24.93
2023-06-22T00:28:50.627Z,24.93
2023-06-22T00:29:54.202Z,24.93
2023-06-22T00:30:57.467Z,24.93
2023-06-22T00:31:59.706Z,24.93
2023-06-22T00:33:03.471Z,24.92
2023-06-22T00:34:07.865Z,24.92
2023-06-22T00:35:11.413Z,24.91
2023-06-22T00:36:17.330Z,24.89
2023-06-22T00:37:20.695Z,24.89
2023-06-22T00:38:22.856Z,24.88
2023-06-22T00:39:26.014Z,24.88
2023-06-22T00:40:28.656Z,24.88
2023-06-22T00:41:32.063Z,24.87
2023-06-22T00:42:34.337Z,24.88
2023-06-22T00:43:37.536Z,24.88
2023-06-22T00:44:39.829Z,24.87
2023-06-22T00:45:44.384Z,24.86
2023-06-22T00:46:46.606Z,24.84
2023-06-22T00:47:49.901Z,24.83
2023-06-22T00:48:56.289Z,24.82
2023-06-22T00:49:58.634Z,24.79
2023-06-22T00:51:02.631Z,24.77
2023-06-22T00:52:05.142Z,24.76
2023-06-22T00:53:11.899Z,24.73
2023-06-22T00:54:14.588Z,24.71
2023-06-22T00:55:19.068Z,24.69
2023-06-22T00:56:25.922Z,24.68
2023-06-22T00:57:29.232Z,24.68
2023-06-22T00:58:32.757Z,24.69
2023-06-22T00:59:35.450Z,24.69
2023-06-22T01:00:39.271Z,24.68
2023-06-22T01:01:42.899Z,24.65
2023-06-22T01:02:47.541Z,24.62
2023-06-22T01:03:52.104Z,24.60
2023-06-22T01:04:56.513Z,24.61
2023-06-22T01:06:10.173Z,24.63
2023-06-22T01:07:19.901Z,24.62
2023-06-22T01:08:32.589Z,24.63
2023-06-22T01:09:42.980Z,24.63
2023-06-22T01:10:52.760Z,24.62
2023-06-22T01:11:57.650Z,24.61
2023-06-22T01:13:03.610Z,24.60
2023-06-22T01:14:13.101Z,24.58
2023-06-22T01:15:29.541Z,24.56
2023-06-22T01:16:35.543Z,24.54
2023-06-22T01:17:42.513Z,24.53
2023-06-22T01:18:46.414Z,24.52
2023-06-22T01:19:53.776Z,24.52
2023-06-22T01:20:58.739Z,24.53
2023-06-22T01:22:02.387Z,24.53
2023-06-22T01:23:11.447Z,24.54
2023-06-22T01:24:22.588Z,24.54
2023-06-22T01:25:31.449Z,24.56
2023-06-22T01:26:41.236Z,24.58
2023-06-22T01:27:55.086Z,24.60
2023-06-22T01:29:01.420Z,24.63
2023-06-22T01:30:06.568Z,24.64
2023-06-22T01:31:11.880Z,24.65
2023-06-22T01:32:14.897Z,24.66
2023-06-22T01:33:18.630Z,24.68
2023-06-22T01:34:21.625Z,24.69
2023-06-22T01:35:26.184Z,24.71
2023-06-22T01:36:28.613Z,24.71
2023-06-22T01:37:33.331Z,24.72
2023-06-22T01:38:36.884Z,24.72
2023-06-22T01:39:40.328Z,24.73
2023-06-22T01:40:42.710Z,24.74
2023-06-22T01:41:46.740Z,24.75
2023-06-22T01:42:49.775Z,24.76
2023-06-22T01:43:54.047Z,24.76
2023-06-22T01:44:58.667Z,24.77
2023-06-22T01:46:04.010Z,24.78
2023-06-22T01:47:07.056Z,24.79
2023-06-22T01:48:10.630Z,24.81
2023-06-22T01:49:15.020Z,24.82
2023-06-22T01:50:17.505Z,24.82
2023-06-22T01:51:20.976Z,24.83
2023-06-22T01:52:23.166Z,24.84
2023-06-22T01:53:26.659Z,24.86
2023-06-22T01:54:28.902Z,24.87
2023-06-22T01:55:32.106Z,24.89
2023-06-22T01:56:34.349Z,24.90
2023-06-22T01:57:38.746Z,24.90
2023-06-22T01:58:48.254Z,24.90
2023-06-22T02:00:00.515Z,24.90
2023-06-22T02:01:15.787Z,24.89
2023-06-22T02:02:27.997Z,24.89
2023-06-22T02:03:34.035Z,24.90
2023-06-22T02:04:41.819Z,24.91
2023-06-22T02:05:49.502Z,24.92
2023-06-22T02:06:57.664Z,24.92
2023-06-22T02:08:08.054Z,24.92
2023-06-22T02:09:15.407Z,24.93
2023-06-22T02:10:21.374Z,24.93
2023-06-22T02:11:28.535Z,24.93
2023-06-22T02:12:33.226Z,24.93
2023-06-22T02:13:36.698Z,24.93
2023-06-22T02:14:39.364Z,24.92
2023-06-22T02:15:44.310Z,24.91
2023-06-22T02:16:47.275Z,24.90
2023-06-22T02:17:50.712Z,24.89
2023-06-22T02:18:53.377Z,24.87
2023-06-22T02:19:56.573Z,24.86
2023-06-22T02:20:58.906Z,24.85
2023-06-22T02:22:02.072Z,24.85
2023-06-22T02:23:04.318Z,24.84
2023-06-22T02:24:07.594Z,24.83
2023-06-22T02:25:09.904Z,24.81
2023-06-22T02:26:13.365Z,24.80
2023-06-22T02:27:15.575Z,24.79
2023-06-22T02:28:18.875Z,24.79
2023-06-22T02:29:21.067Z,24.79
2023-06-22T02:30:24.270Z,24.80
2023-06-22T02:31:31.729Z,24.80
2023-06-22T02:32:35.647Z,24.80
2023-06-22T02:33:37.928Z,24.80
2023-06-22T02:34:41.152Z,24.81
2023-06-22T02:35:46.735Z,24.81
2023-06-22T02:36:52.928Z,24.81
2023-06-22T02:37:55.496Z,24.81
2023-06-22T02:39:02.297Z,24.82
2023-06-22T02:40:08.041Z,24.83
2023-06-22T02:41:14.235Z,24.83
2023-06-22T02:42:21.740Z,24.83
2023-06-22T02:43:23.980Z,24.83
2023-06-22T02:44:27.165Z,24.83
2023-06-22T02:45:29.849Z,24.82
2023-06-22T02:46:34.397Z,24.81
2023-06-22T02:47:36.718Z,24.81
2023-06-22T02:48:39.942Z,24.82
2023-06-22T02:49:43.006Z,24.81
2023-06-22T02:50:46.323Z,24.80
2023-06-22T02:51:49.440Z,24.80
2023-06-22T02:52:52.677Z,24.80
2023-06-22T02:53:58.823Z,24.80
2023-06-22T02:55:02.241Z,24.80
2023-06-22T02:56:06.625Z,24.79
2023-06-22T02:57:14.906Z,24.75
2023-06-22T02:58:18.208Z,24.71
2023-06-22T02:59:24.553Z,24.66
2023-06-22T03:00:31.932Z,24.63
2023-06-22T03:01:40.921Z,24.61
2023-06-22T03:02:44.602Z,24.58
2023-06-22T03:03:47.216Z,24.53
2023-06-22T03:04:50.959Z,24.50
2023-06-22T03:05:54.116Z,24.47
2023-06-22T03:06:57.330Z,24.45
2023-06-22T03:07:59.704Z,24.42
2023-06-22T03:09:04.978Z,24.40
2023-06-22T03:10:08.423Z,24.39
2023-06-22T03:11:11.595Z,24.38
2023-06-22T03:12:13.799Z,24.38
2023-06-22T03:13:17.939Z,24.37
2023-06-22T03:14:20.118Z,24.37
2023-06-22T03:15:23.629Z,24.38
2023-06-22T03:16:26.038Z,24.39
2023-06-22T03:17:30.786Z,24.39
2023-06-22T03:18:32.917Z,24.38
2023-06-22T03:19:36.389Z,24.38
2023-06-22T03:20:38.851Z,24.38
2023-06-22T03:21:42.734Z,24.36
2023-06-22T03:22:44.968Z,24.35
2023-06-22T03:23:48.179Z,24.33
2023-06-22T03:24:50.365Z,24.33
2023-06-22T03:25:53.561Z,24.32
2023-06-22T03:26:56.045Z,24.33
2023-06-22T03:27:59.218Z,24.33
2023-06-22T03:29:01.745Z,24.32
2023-06-22T03:30:05.629Z,24.31
2023-06-22T03:31:08.044Z,24.31
2023-06-22T03:32:11.245Z,24.31
2023-06-22T03:33:14.839Z,24.31
2023-06-22T03:34:18.005Z,24.32
2023-06-22T03:35:20.180Z,24.33
2023-06-22T03:36:23.483Z,24.35
2023-06-22T03:37:25.791Z,24.37
2023-06-22T03:38:29.040Z,24.38
2023-06-22T03:39:32.214Z,24.39
2023-06-22T03:40:34.444Z,24.40
2023-06-22T03:41:37.693Z,24.41
2023-06-22T03:42:39.890Z,24.42
2023-06-22T03:43:43.402Z,24.43
2023-06-22T03:44:45.766Z,24.43
2023-06-22T03:45:48.952Z,24.43
2023-06-22T03:46:51.421Z,24.43
2023-06-22T03:47:54.719Z,24.43
2023-06-22T03:48:58.396Z,24.43
2023-06-22T03:50:01.610Z,24.43
2023-06-22T03:51:04.214Z,24.43
2023-06-22T03:52:07.975Z,24.43
2023-06-22T03:53:10.178Z,24.43
2023-06-22T03:54:13.375Z,24.43
2023-06-22T03:55:15.574Z,24.43
2023-06-22T03:56:21.549Z,24.43
2023-06-22T03:57:23.751Z,24.44
2023-06-22T03:58:26.959Z,24.44
2023-06-22T03:59:29.205Z,24.46
2023-06-22T04:00:32.461Z,24.47
2023-06-22T04:01:34.795Z,24.50
2023-06-22T04:02:37.968Z,24.52
2023-06-22T04:03:40.310Z,24.54
2023-06-22T04:04:44.893Z,24.55
2023-06-22T04:05:47.580Z,24.56
2023-06-22T04:06:50.787Z,24.58
2023-06-22T04:07:52.956Z,24.61
2023-06-22T04:08:56.114Z,24.62
2023-06-22T04:09:58.273Z,24.64
2023-06-22T04:11:01.415Z,24.65
2023-06-22T04:12:04.154Z,24.66
2023-06-22T04:13:07.275Z,24.68
2023-06-22T04:14:09.430Z,24.70
2023-06-22T04:15:13.215Z,24.71
2023-06-22T04:16:15.594Z,24.71
2023-06-22T04:17:20.424Z,24.72
2023-06-22T04:18:22.613Z,24.72
2023-06-22T04:19:25.819Z,24.72
2023-06-22T04:20:30.214Z,24.73
2023-06-22T04:21:33.763Z,24.74
2023-06-22T04:22:35.932Z,24.75
2023-06-22T04:23:39.124Z,24.76
2023-06-22T04:24:41.338Z,24.75
2023-06-22T04:25:44.554Z,24.75
2023-06-22T04:26:48.084Z,24.75
2023-06-22T04:27:52.075Z,24.76
2023-06-22T04:28:56.731Z,24.76
2023-06-22T04:30:01.581Z,24.75
2023-06-22T04:31:04.128Z,24.74
2023-06-22T04:32:08.679Z,24.74
2023-06-22T04:33:10.787Z,24.75
2023-06-22T04:34:17.498Z,24.75
2023-06-22T04:35:19.857Z,24.74
2023-06-22T04:36:26.175Z,24.74
2023-06-22T04:37:28.529Z,24.75
2023-06-22T04:38:34.306Z,24.74
2023-06-22T04:39:37.084Z,24.74
2023-06-22T04:40:40.248Z,24.74
2023-06-22T04:41:45.363Z,24.75
2023-06-22T04:42:53.365Z,24.76
2023-06-22T04:44:01.018Z,24.77
2023-06-22T04:45:04.628Z,24.78
2023-06-22T04:46:06.806Z,24.80
2023-06-22T04:47:10.414Z,24.82
2023-06-22T04:48:17.469Z,24.82
2023-06-22T04:49:21.015Z,24.84
2023-06-22T04:50:24.715Z,24.87
2023-06-22T04:51:31.778Z,24.89
2023-06-22T04:52:33.981Z,24.90
2023-06-22T04:53:37.234Z,24.91
2023-06-22T04:54:41.519Z,24.93
2023-06-22T04:55:46.856Z,24.95
2023-06-22T04:56:49.252Z,24.97
2023-06-22T04:57:52.386Z,24.98
2023-06-22T04:58:57.036Z,25.00
2023-06-22T05:00:17.606Z,25.03
2023-06-22T05:01:20.725Z,25.08
2023-06-22T05:02:28.934Z,25.10
2023-06-22T05:03:31.356Z,25.11
2023-06-22T05:04:37.091Z,25.12
2023-06-22T05:05:39.632Z,25.13
2023-06-22T05:06:44.217Z,25.14
2023-06-22T05:07:49.467Z,25.16
2023-06-22T05:08:52.583Z,25.16
2023-06-22T05:09:55.711Z,25.17
2023-06-22T05:11:04.913Z,25.18
2023-06-22T05:12:11.413Z,25.21
2023-06-22T05:13:14.028Z,25.23
2023-06-22T05:14:17.289Z,25.24
2023-06-22T05:15:20.553Z,25.26
2023-06-22T05:16:25.363Z,25.28
2023-06-22T05:17:27.705Z,25.30
2023-06-22T05:18:31.544Z,25.32
2023-06-22T05:19:35.267Z,25.34
2023-06-22T05:20:38.653Z,25.36
2023-06-22T05:21:41.839Z,25.36
2023-06-22T05:22:45.384Z,25.37
2023-06-22T05:23:48.561Z,25.37
2023-06-22T05:24:50.724Z,25.38
2023-06-22T05:25:55.317Z,25.39
2023-06-22T05:26:57.608Z,25.39
2023-06-22T05:28:00.815Z,25.40
2023-06-22T05:29:04.208Z,25.42
2023-06-22T05:30:08.993Z,25.44
2023-06-22T05:31:12.344Z,25.45
2023-06-22T05:32:14.555Z,25.46
2023-06-22T05:33:17.765Z,25.47
2023-06-22T05:34:19.980Z,25.48
2023-06-22T05:35:23.132Z,25.49
2023-06-22T05:36:26.209Z,25.50
2023-06-22T05:37:30.585Z,25.51
2023-06-22T05:38:34.450Z,25.50
2023-06-22T05:39:39.561Z,25.37
2023-06-22T05:40:41.750Z,25.37
2023-06-22T05:41:45.314Z,25.39
2023-06-22T05:42:47.502Z,25.40
2023-06-22T05:43:50.603Z,25.40
2023-06-22T05:44:52.900Z,25.42
2023-06-22T05:45:56.085Z,25.43
2023-06-22T05:46:59.312Z,25.42
2023-06-22T05:48:02.682Z,25.42
2023-06-22T05:49:05.945Z,25.43
2023-06-22T05:50:12.385Z,25.44
2023-06-22T05:51:16.528Z,25.45
2023-06-22T05:52:18.713Z,25.46
2023-06-22T05:53:21.949Z,25.48
2023-06-22T05:54:25.488Z,25.49
2023-06-22T05:55:28.682Z,25.50
2023-06-22T05:56:30.865Z,25.51
2023-06-22T05:57:34.020Z,25.52
2023-06-22T05:58:38.006Z,25.53
2023-06-22T05:59:40.192Z,25.54
2023-06-22T06:00:44.262Z,25.56
2023-06-22T06:01:50.965Z,25.57
2023-06-22T06:02:54.348Z,25.60
2023-06-22T06:03:56.768Z,25.62
2023-06-22T06:05:00.060Z,25.64
2023-06-22T06:06:03.752Z,25.66
2023-06-22T06:07:09.704Z,25.69
2023-06-22T06:08:12.476Z,25.70
2023-06-22T06:09:15.830Z,25.71
2023-06-22T06:10:19.324Z,25.71
2023-06-22T06:11:22.821Z,25.72
2023-06-22T06:12:25.127Z,25.74
2023-06-22T06:13:28.440Z,25.76
2023-06-22T06:14:31.658Z,25.81
2023-06-22T06:15:34.977Z,25.85
2023-06-22T06:16:37.331Z,25.87
2023-06-22T06:17:48.030Z,25.87
2023-06-22T06:18:51.863Z,25.88
2023-06-22T06:19:54.245Z,25.90
2023-06-22T06:20:57.564Z,25.92
2023-06-22T06:22:00.108Z,25.94
2023-06-22T06:23:03.472Z,25.96
2023-06-22T06:24:06.206Z,25.97
2023-06-22T06:25:10.262Z,25.97
2023-06-22T06:26:13.795Z,25.99
2023-06-22T06:27:19.112Z,26.00
2023-06-22T06:28:21.346Z,26.02
2023-06-22T06:29:24.910Z,26.03
2023-06-22T06:30:27.422Z,26.04
2023-06-22T06:31:31.640Z,26.07
2023-06-22T06:32:33.935Z,26.09
2023-06-22T06:33:37.450Z,26.11
2023-06-22T06:34:39.744Z,26.14
2023-06-22T06:35:43.007Z,26.15
2023-06-22T06:36:46.259Z,26.18
2023-06-22T06:37:51.547Z,26.21
2023-06-22T06:38:54.761Z,26.23
2023-06-22T06:39:57.056Z,26.26
2023-06-22T06:41:00.969Z,26.28
2023-06-22T06:42:06.009Z,26.30
2023-06-22T06:43:09.480Z,26.33
2023-06-22T06:44:11.705Z,26.35
2023-06-22T06:45:17.079Z,26.37
2023-06-22T06:46:20.930Z,26.39
2023-06-22T06:47:23.141Z,26.42
2023-06-22T06:48:26.335Z,26.44
2023-06-22T06:49:29.412Z,26.47
2023-06-22T06:50:33.016Z,26.51
2023-06-22T06:51:35.545Z,26.54
2023-06-22T06:52:39.386Z,26.56
2023-06-22T06:53:42.826Z,26.59
2023-06-22T06:54:44.987Z,26.62
2023-06-22T06:55:48.300Z,26.66
2023-06-22T06:56:51.091Z,26.69
2023-06-22T06:57:55.674Z,26.71
2023-06-22T06:58:57.899Z,26.73
2023-06-22T07:00:01.126Z,26.74
2023-06-22T07:01:04.507Z,26.77
2023-06-22T07:02:07.809Z,26.79
2023-06-22T07:03:11.044Z,26.83
2023-06-22T07:04:13.243Z,26.86
2023-06-22T07:05:16.689Z,26.88
2023-06-22T07:06:19.970Z,26.91
2023-06-22T07:07:22.336Z,26.94
2023-06-22T07:08:25.549Z,26.97
2023-06-22T07:09:27.811Z,27.00
2023-06-22T07:10:31.671Z,27.02
2023-06-22T07:11:34.813Z,27.03
2023-06-22T07:12:38.060Z,27.05
2023-06-22T07:13:42.559Z,27.07
2023-06-22T07:14:44.871Z,27.09
2023-06-22T07:15:48.096Z,27.11
2023-06-22T07:16:51.302Z,27.12
2023-06-22T07:17:54.473Z,27.15
2023-06-22T07:18:57.729Z,27.17
2023-06-22T07:20:00.054Z,27.19
2023-06-22T07:21:04.891Z,27.21
2023-06-22T07:22:07.155Z,27.23
2023-06-22T07:23:10.321Z,27.27
2023-06-22T07:24:12.499Z,27.29
2023-06-22T07:25:16.720Z,27.32
2023-06-22T07:26:19.078Z,27.36
2023-06-22T07:27:22.495Z,27.40
2023-06-22T07:28:25.771Z,27.43
2023-06-22T07:29:29.330Z,27.47
2023-06-22T07:30:34.397Z,27.50
2023-06-22T07:31:36.874Z,27.52
2023-06-22T07:32:40.359Z,27.55
2023-06-22T07:33:43.531Z,27.58
2023-06-22T07:34:45.774Z,27.59
2023-06-22T07:35:49.736Z,27.61
2023-06-22T07:36:51.946Z,27.63
2023-06-22T07:37:55.033Z,27.65
2023-06-22T07:38:57.231Z,27.68
2023-06-22T07:40:00.484Z,27.71
2023-06-22T07:41:03.568Z,27.74
2023-06-22T07:42:07.416Z,27.76
2023-06-22T07:43:10.575Z,27.77
2023-06-22T07:44:12.795Z,27.79
2023-06-22T07:45:17.612Z,27.81
2023-06-22T07:46:19.800Z,27.84
2023-06-22T07:47:26.511Z,27.88
2023-06-22T07:48:29.729Z,27.92
2023-06-22T07:49:32.880Z,27.96
2023-06-22T07:50:35.055Z,27.98
2023-06-22T07:51:38.674Z,28.00
2023-06-22T07:52:41.008Z,28.01
2023-06-22T07:53:44.584Z,28.04
2023-06-22T07:54:46.835Z,28.05
2023-06-22T07:55:50.387Z,28.07
2023-06-22T07:56:53.853Z,28.08
2023-06-22T07:57:57.039Z,28.11
2023-06-22T07:59:00.296Z,28.14
2023-06-22T08:00:12.440Z,28.17
2023-06-22T08:01:17.895Z,28.21
2023-06-22T08:02:20.318Z,28.22
2023-06-22T08:03:23.589Z,28.24
2023-06-22T08:04:26.031Z,28.27
2023-06-22T08:05:29.246Z,28.30
2023-06-22T08:06:32.517Z,28.33
2023-06-22T08:07:34.701Z,28.35
2023-06-22T08:08:38.005Z,28.37
2023-06-22T08:09:40.204Z,28.40
2023-06-22T08:10:43.571Z,28.42
2023-06-22T08:11:45.766Z,28.45
2023-06-22T08:12:48.911Z,28.48
2023-06-22T08:13:52.144Z,28.51
2023-06-22T08:14:55.349Z,28.52
2023-06-22T08:15:58.559Z,28.55
2023-06-22T08:17:02.137Z,28.56
2023-06-22T08:18:05.719Z,28.57
2023-06-22T08:19:07.974Z,28.60
2023-06-22T08:20:13.256Z,28.61
2023-06-22T08:21:16.851Z,28.64
2023-06-22T08:22:19.973Z,28.67
2023-06-22T08:23:23.109Z,28.70
2023-06-22T08:24:26.222Z,28.73
2023-06-22T08:25:28.700Z,28.75
2023-06-22T08:26:34.475Z,28.77
2023-06-22T08:27:36.820Z,28.80
2023-06-22T08:28:39.962Z,28.82
2023-06-22T08:29:43.233Z,28.84
2023-06-22T08:30:46.431Z,28.86
2023-06-22T08:31:48.639Z,28.88
2023-06-22T08:32:53.256Z,28.91
2023-06-22T08:33:55.453Z,28.94
2023-06-22T08:34:59.484Z,28.96
2023-06-22T08:36:01.695Z,28.96
2023-06-22T08:37:07.507Z,28.97
2023-06-22T08:38:11.879Z,29.00
2023-06-22T08:39:14.060Z,29.04
2023-06-22T08:40:17.227Z,29.05
2023-06-22T08:41:20.471Z,29.07
2023-06-22T08:42:22.816Z,29.10
2023-06-22T08:43:25.979Z,29.12
2023-06-22T08:44:28.406Z,29.14
2023-06-22T08:45:31.580Z,29.17
2023-06-22T08:46:34.830Z,29.19
2023-06-22T08:47:37.176Z,29.21
2023-06-22T08:48:41.714Z,29.22
2023-06-22T08:49:43.901Z,29.24
2023-06-22T08:50:47.128Z,29.25
2023-06-22T08:51:50.668Z,29.27
2023-06-22T08:52:54.067Z,29.27
2023-06-22T08:53:56.308Z,29.27
2023-06-22T08:55:00.359Z,29.28
2023-06-22T08:56:03.553Z,29.28
2023-06-22T08:57:06.418Z,29.29
2023-06-22T08:58:09.605Z,29.30
2023-06-22T08:59:11.980Z,29.29
2023-06-22T09:00:18.479Z,29.29
2023-06-22T09:01:22.234Z,29.30
2023-06-22T09:02:24.626Z,29.32
2023-06-22T09:03:28.371Z,29.33
2023-06-22T09:04:35.653Z,29.35
2023-06-22T09:05:39.815Z,29.37
2023-06-22T09:06:46.072Z,29.39
2023-06-22T09:07:49.560Z,29.42
2023-06-22T09:08:52.971Z,29.42
2023-06-22T09:09:55.278Z,29.41
2023-06-22T09:10:58.481Z,29.42
2023-06-22T09:12:00.646Z,29.45
2023-06-22T09:13:03.878Z,29.46
2023-06-22T09:14:07.587Z,29.48
2023-06-22T09:15:15.626Z,29.49
2023-06-22T09:16:20.075Z,29.50
2023-06-22T09:17:22.850Z,29.51
2023-06-22T09:18:26.078Z,29.52
2023-06-22T09:19:29.314Z,29.53
2023-06-22T09:20:33.961Z,29.54
2023-06-22T09:21:36.270Z,29.54
2023-06-22T09:22:39.599Z,29.53
2023-06-22T09:23:42.884Z,29.52
2023-06-22T09:24:45.088Z,29.54
2023-06-22T09:25:49.091Z,29.57
2023-06-22T09:26:52.577Z,29.59
2023-06-22T09:27:55.775Z,29.60
2023-06-22T09:28:59.006Z,29.61
2023-06-22T09:30:02.216Z,29.65
2023-06-22T09:31:05.502Z,29.68
2023-06-22T09:32:08.601Z,29.70
2023-06-22T09:33:11.980Z,29.73
2023-06-22T09:34:15.232Z,29.74
2023-06-22T09:35:17.576Z,29.74
2023-06-22T09:36:22.241Z,29.75
2023-06-22T09:37:25.447Z,29.75
2023-06-22T09:38:27.637Z,29.75
2023-06-22T09:39:30.939Z,29.76
2023-06-22T09:40:36.645Z,29.78
2023-06-22T09:41:38.911Z,29.78
2023-06-22T09:42:43.615Z,29.78
2023-06-22T09:43:45.852Z,29.81
2023-06-22T09:44:51.391Z,29.82
2023-06-22T09:45:53.750Z,29.83
2023-06-22T09:46:56.970Z,29.86
2023-06-22T09:48:00.266Z,29.89
2023-06-22T09:49:02.609Z,29.92
2023-06-22T09:50:06.657Z,29.94
2023-06-22T09:51:08.962Z,29.97
2023-06-22T09:52:13.552Z,29.99
2023-06-22T09:53:15.856Z,30.00
2023-06-22T09:54:19.303Z,30.02
2023-06-22T09:55:22.498Z,30.04
2023-06-22T09:56:27.514Z,30.05
2023-06-22T09:57:35.038Z,30.07
2023-06-22T09:58:38.280Z,30.09
2023-06-22T09:59:42.213Z,30.09
2023-06-22T10:00:45.518Z,30.11
2023-06-22T10:01:47.709Z,30.13
2023-06-22T10:02:51.710Z,30.17
2023-06-22T10:03:57.273Z,30.18
2023-06-22T10:05:00.933Z,30.19
2023-06-22T10:06:04.738Z,30.21
2023-06-22T10:07:07.207Z,30.25
2023-06-22T10:08:11.691Z,30.29
2023-06-22T10:09:13.894Z,30.31
2023-06-22T10:10:17.356Z,30.31
2023-06-22T10:11:20.665Z,30.31
2023-06-22T10:12:27.697Z,30.31
2023-06-22T10:13:30.839Z,30.34
2023-06-22T10:14:34.017Z,30.38
2023-06-22T10:15:36.253Z,30.41
2023-06-22T10:16:39.475Z,30.43
2023-06-22T10:17:44.697Z,30.44
2023-06-22T10:18:47.891Z,30.44
2023-06-22T10:19:50.065Z,30.45
2023-06-22T10:20:53.922Z,30.45
2023-06-22T10:21:56.588Z,30.47
2023-06-22T10:23:00.178Z,30.48
2023-06-22T10:24:07.368Z,30.48
2023-06-22T10:25:11.558Z,30.50
2023-06-22T10:26:14.717Z,30.51
2023-06-22T10:27:16.976Z,30.54
2023-06-22T10:28:20.138Z,30.56
2023-06-22T10:29:22.295Z,30.60
2023-06-22T10:30:25.547Z,30.61
2023-06-22T10:31:28.600Z,30.63
2023-06-22T10:32:32.021Z,30.64
2023-06-22T10:33:34.304Z,30.65
2023-06-22T10:34:37.591Z,30.65
2023-06-22T10:35:41.173Z,30.67
2023-06-22T10:36:43.537Z,30.68
2023-06-22T10:37:47.867Z,30.70
2023-06-22T10:38:51.350Z,30.71
2023-06-22T10:39:54.864Z,30.73
2023-06-22T10:40:59.425Z,30.74
2023-06-22T10:42:02.678Z,30.77
2023-06-22T10:43:06.576Z,30.80
2023-06-22T10:44:09.672Z,30.83
2023-06-22T10:45:13.264Z,30.88
2023-06-22T10:46:15.407Z,30.90
2023-06-22T10:47:18.643Z,30.91
2023-06-22T10:48:24.530Z,30.92
2023-06-22T10:49:27.695Z,30.93
2023-06-22T10:50:31.157Z,30.95
2023-06-22T10:51:33.797Z,30.98
2023-06-22T10:52:36.949Z,30.99
2023-06-22T10:53:40.094Z,31.00
2023-06-22T10:54:42.514Z,31.05
2023-06-22T10:55:55.562Z,31.08
2023-06-22T10:57:00.420Z,31.12
2023-06-22T10:58:02.606Z,31.12
2023-06-22T10:59:05.794Z,31.10
2023-06-22T11:00:10.186Z,31.11
2023-06-22T11:01:26.705Z,31.12
2023-06-22T11:02:36.503Z,31.11
2023-06-22T11:03:38.922Z,31.12
2023-06-22T11:04:42.291Z,31.14
2023-06-22T11:05:45.523Z,31.17
2023-06-22T11:06:49.746Z,31.21
2023-06-22T11:07:54.244Z,31.24
2023-06-22T11:09:04.220Z,31.26
2023-06-22T11:10:10.367Z,31.25
2023-06-22T11:11:14.080Z,31.27
2023-06-22T11:12:17.353Z,31.28
2023-06-22T11:13:20.581Z,31.30
2023-06-22T11:14:24.174Z,31.31
2023-06-22T11:15:27.344Z,31.34
2023-06-22T11:16:29.533Z,31.35
2023-06-22T11:17:32.886Z,31.36
2023-06-22T11:18:36.113Z,31.37
2023-06-22T11:19:38.301Z,31.39
2023-06-22T11:20:42.010Z,31.41
2023-06-22T11:21:44.259Z,31.43
2023-06-22T11:22:47.381Z,31.45
2023-06-22T11:23:51.596Z,31.48
2023-06-22T11:24:53.922Z,31.52
2023-06-22T11:25:57.446Z,31.51
2023-06-22T11:27:01.058Z,31.48
2023-06-22T11:28:05.001Z,31.48
2023-06-22T11:29:07.236Z,31.47
2023-06-22T11:30:11.168Z,31.46
2023-06-22T11:32:21.141Z,31.46
2023-06-22T11:33:24.400Z,31.47
2023-06-22T11:34:27.165Z,31.49
2023-06-22T11:35:30.365Z,31.53
2023-06-22T11:36:34.449Z,31.56
2023-06-22T11:37:38.830Z,31.57
2023-06-22T11:38:42.070Z,31.58
2023-06-22T11:39:53.340Z,31.60
2023-06-22T11:41:03.405Z,31.63
2023-06-22T11:42:07.673Z,31.65
2023-06-22T11:43:10.825Z,31.66
2023-06-22T11:44:12.971Z,31.67
2023-06-22T11:45:16.136Z,31.68
2023-06-22T11:46:18.433Z,31.68
2023-06-22T11:47:21.656Z,31.68
2023-06-22T11:48:24.945Z,31.68
2023-06-22T11:49:28.097Z,31.68
2023-06-22T11:50:35.462Z,31.70
2023-06-22T11:51:38.601Z,31.70
2023-06-22T11:52:41.783Z,31.71
2023-06-22T11:53:43.978Z,31.71
2023-06-22T11:54:48.052Z,31.71
2023-06-22T11:55:51.205Z,31.73
2023-06-22T11:56:54.413Z,31.77
2023-06-22T11:58:03.547Z,31.79
2023-06-22T11:59:06.963Z,31.80
2023-06-22T12:00:17.516Z,31.82
2023-06-22T12:01:21.033Z,31.84
2023-06-22T12:02:24.297Z,31.86
2023-06-22T12:03:27.600Z,31.86
2023-06-22T12:04:30.244Z,31.88
2023-06-22T12:05:33.387Z,31.93
2023-06-22T12:06:39.308Z,31.96
2023-06-22T12:07:42.650Z,31.97
2023-06-22T12:08:44.874Z,32.01
2023-06-22T12:09:48.033Z,32.06
2023-06-22T12:10:52.175Z,32.08
2023-06-22T12:11:54.359Z,32.10
2023-06-22T12:13:00.991Z,32.10
2023-06-22T12:14:04.217Z,32.10
2023-06-22T12:15:08.552Z,32.12
2023-06-22T12:16:13.345Z,32.13
2023-06-22T12:17:16.624Z,32.13
2023-06-22T12:18:21.856Z,32.15
2023-06-22T12:19:24.951Z,32.15
2023-06-22T12:20:28.394Z,32.18
2023-06-22T12:21:30.805Z,32.22
2023-06-22T12:22:33.948Z,32.27
2023-06-22T12:23:37.108Z,32.32
2023-06-22T12:24:40.199Z,32.34
2023-06-22T12:25:43.411Z,32.35
2023-06-22T12:26:46.592Z,32.39
2023-06-22T12:27:48.725Z,32.43
2023-06-22T12:28:53.181Z,32.46
2023-06-22T12:29:56.295Z,32.51
2023-06-22T12:30:59.494Z,32.56
2023-06-22T12:32:02.647Z,32.56
2023-06-22T12:33:05.849Z,32.55
2023-06-22T12:34:08.978Z,32.55
2023-06-22T12:35:15.058Z,32.57
2023-06-22T12:36:18.653Z,32.59
2023-06-22T12:37:21.020Z,32.61
2023-06-22T12:38:25.953Z,32.62
2023-06-22T12:39:29.119Z,32.62
2023-06-22T12:40:32.490Z,32.62
2023-06-22T12:41:35.004Z,32.62
2023-06-22T12:42:38.290Z,32.59
2023-06-22T12:43:42.451Z,32.59
2023-06-22T12:44:46.908Z,32.57
2023-06-22T12:45:50.210Z,32.54
2023-06-22T12:46:53.483Z,32.55
2023-06-22T12:47:56.685Z,32.56
2023-06-22T12:48:59.030Z,32.56
2023-06-22T12:50:02.275Z,32.58
2023-06-22T12:51:05.416Z,32.63
2023-06-22T12:52:10.890Z,32.65
2023-06-22T12:53:14.045Z,32.68
2023-06-22T12:54:16.327Z,32.69
2023-06-22T12:55:19.501Z,32.70
2023-06-22T12:56:22.618Z,32.70
2023-06-22T12:57:26.622Z,32.68
2023-06-22T12:58:28.783Z,32.65
2023-06-22T12:59:32.104Z,32.64
2023-06-22T13:00:36.672Z,32.64
2023-06-22T13:01:38.862Z,32.64
2023-06-22T13:02:42.055Z,32.64
2023-06-22T13:03:44.380Z,32.63
2023-06-22T13:04:47.621Z,32.62
2023-06-22T13:05:49.832Z,32.60
2023-06-22T13:06:52.960Z,32.61
2023-06-22T13:07:55.815Z,32.63
2023-06-22T13:09:19.610Z,32.65
2023-06-22T13:10:22.346Z,32.69
2023-06-22T13:11:25.519Z,32.69
2023-06-22T13:12:28.727Z,32.70
2023-06-22T13:13:31.920Z,32.71
2023-06-22T13:14:35.094Z,32.74
2023-06-22T13:15:39.548Z,32.80
2023-06-22T13:16:41.737Z,32.82
2023-06-22T13:17:45.031Z,32.86
2023-06-22T13:18:48.184Z,32.92
2023-06-22T13:19:51.381Z,32.95
2023-06-22T13:20:55.835Z,33.00
2023-06-22T13:21:59.011Z,33.02
2023-06-22T13:23:01.170Z,33.05
2023-06-22T13:24:04.680Z,33.05
2023-06-22T13:25:08.177Z,33.06
2023-06-22T13:26:11.301Z,33.08
2023-06-22T13:27:13.457Z,33.10
2023-06-22T13:28:27.797Z,33.10
2023-06-22T13:29:32.322Z,33.10
2023-06-22T13:30:35.595Z,33.10
2023-06-22T13:31:39.965Z,33.09
2023-06-22T13:32:44.226Z,33.10
2023-06-22T13:33:48.982Z,33.10
2023-06-22T13:34:52.129Z,33.10
2023-06-22T13:35:54.301Z,33.10
2023-06-22T13:36:57.443Z,33.14
2023-06-22T13:37:59.581Z,33.14
2023-06-22T13:39:02.765Z,33.17
2023-06-22T13:40:07.611Z,33.20
2023-06-22T13:41:10.946Z,33.25
2023-06-22T13:42:14.410Z,33.27
2023-06-22T13:43:17.920Z,33.22